Maasmechelen, Belgium
Current Conditions -  °F | °C
As of 7:25 AM on Tuesday 21 Oct 2014 (Local Time) from EHBK Reporting Station
Few Clouds Few Clouds  
Wind Chill: 52°   Ceiling: Unl
Heat Index: 52°   Visibility: 6mi
Dew Point: 48°   Wind: 15mph
Humidity: 88%   Direction: 210°SSW
Pressure: 29.8"   Gusts: NA
Location:  50.97°N, 5.69°E
Report Text: EHBK 210525Z AUTO 21013KT 9999 FEW016 11/09 Q1009 NOSIG
Loading
Personal Weather Stations






























Interactive Weather Map
Tropical Storm Tracking
New forecast layout! Learn more

10-Day Weather Forecast

Advertisements
Track Severe Weather on mobile